sensor_id;sensor_type;location;lat;lon;timestamp;P1;durP1;ratioP1;P2;durP2;ratioP2
13343;SDS011;6741;48.964;9.406;2023-06-04T00:00:40;3.88;;;3.20;;
13343;SDS011;6741;48.964;9.406;2023-06-04T00:03:07;3.67;;;3.38;;
13343;SDS011;6741;48.964;9.406;2023-06-04T00:05:34;3.35;;;3.03;;
13343;SDS011;6741;48.964;9.406;2023-06-04T00:08:01;6.25;;;3.40;;
13343;SDS011;6741;48.964;9.406;2023-06-04T00:10:28;3.63;;;3.10;;
13343;SDS011;6741;48.964;9.406;2023-06-04T00:12:56;6.70;;;3.42;;
13343;SDS011;6741;48.964;9.406;2023-06-04T00:15:24;4.85;;;3.10;;
13343;SDS011;6741;48.964;9.406;2023-06-04T00:17:51;3.40;;;3.10;;
13343;SDS011;6741;48.964;9.406;2023-06-04T00:20:18;4.15;;;3.42;;
13343;SDS011;6741;48.964;9.406;2023-06-04T00:22:45;5.77;;;3.97;;
13343;SDS011;6741;48.964;9.406;2023-06-04T00:25:12;5.85;;;3.30;;
13343;SDS011;6741;48.964;9.406;2023-06-04T00:27:39;5.17;;;3.17;;
13343;SDS011;6741;48.964;9.406;2023-06-04T00:30:06;4.10;;;3.23;;
13343;SDS011;6741;48.964;9.406;2023-06-04T00:32:35;4.87;;;3.10;;
13343;SDS011;6741;48.964;9.406;2023-06-04T00:35:02;4.22;;;2.83;;
13343;SDS011;6741;48.964;9.406;2023-06-04T00:37:30;5.80;;;3.07;;
13343;SDS011;6741;48.964;9.406;2023-06-04T00:39:57;4.10;;;3.20;;
13343;SDS011;6741;48.964;9.406;2023-06-04T00:42:25;3.37;;;3.07;;
13343;SDS011;6741;48.964;9.406;2023-06-04T00:44:52;3.63;;;2.77;;
13343;SDS011;6741;48.964;9.406;2023-06-04T00:47:22;2.80;;;2.60;;
13343;SDS011;6741;48.964;9.406;2023-06-04T00:49:53;3.67;;;2.90;;
13343;SDS011;6741;48.964;9.406;2023-06-04T00:52:23;3.37;;;2.80;;
13343;SDS011;6741;48.964;9.406;2023-06-04T00:54:50;3.58;;;2.67;;
13343;SDS011;6741;48.964;9.406;2023-06-04T00:57:19;3.87;;;2.70;;
13343;SDS011;6741;48.964;9.406;2023-06-04T00:59:47;4.53;;;3.20;;
13343;SDS011;6741;48.964;9.406;2023-06-04T01:02:15;5.73;;;3.30;;
13343;SDS011;6741;48.964;9.406;2023-06-04T01:04:46;3.20;;;2.57;;
13343;SDS011;6741;48.964;9.406;2023-06-04T01:07:21;3.70;;;2.90;;
13343;SDS011;6741;48.964;9.406;2023-06-04T01:09:49;4.17;;;2.77;;
13343;SDS011;6741;48.964;9.406;2023-06-04T01:12:16;4.47;;;2.53;;
13343;SDS011;6741;48.964;9.406;2023-06-04T01:14:43;4.50;;;2.80;;
13343;SDS011;6741;48.964;9.406;2023-06-04T01:17:14;4.40;;;3.23;;
13343;SDS011;6741;48.964;9.406;2023-06-04T01:19:55;2.70;;;2.50;;
13343;SDS011;6741;48.964;9.406;2023-06-04T01:22:33;4.47;;;2.77;;
13343;SDS011;6741;48.964;9.406;2023-06-04T01:25:05;3.10;;;2.80;;
13343;SDS011;6741;48.964;9.406;2023-06-04T01:27:44;3.43;;;2.97;;
13343;SDS011;6741;48.964;9.406;2023-06-04T01:30:14;3.33;;;2.70;;
13343;SDS011;6741;48.964;9.406;2023-06-04T01:32:41;3.87;;;2.50;;
13343;SDS011;6741;48.964;9.406;2023-06-04T01:35:10;3.97;;;2.47;;
13343;SDS011;6741;48.964;9.406;2023-06-04T01:37:37;3.17;;;2.70;;
13343;SDS011;6741;48.964;9.406;2023-06-04T01:40:05;2.87;;;2.40;;
13343;SDS011;6741;48.964;9.406;2023-06-04T01:42:33;5.47;;;2.80;;
13343;SDS011;6741;48.964;9.406;2023-06-04T01:45:00;5.27;;;2.60;;
13343;SDS011;6741;48.964;9.406;2023-06-04T01:47:27;4.50;;;2.90;;
13343;SDS011;6741;48.964;9.406;2023-06-04T01:49:54;2.30;;;2.10;;
13343;SDS011;6741;48.964;9.406;2023-06-04T01:52:22;3.30;;;2.93;;
13343;SDS011;6741;48.964;9.406;2023-06-04T01:54:49;2.50;;;2.30;;
13343;SDS011;6741;48.964;9.406;2023-06-04T01:57:17;4.70;;;2.60;;
13343;SDS011;6741;48.964;9.406;2023-06-04T01:59:45;3.67;;;2.90;;
13343;SDS011;6741;48.964;9.406;2023-06-04T02:02:12;2.90;;;2.60;;
13343;SDS011;6741;48.964;9.406;2023-06-04T02:04:39;3.03;;;2.63;;
13343;SDS011;6741;48.964;9.406;2023-06-04T02:07:08;2.77;;;2.33;;
13343;SDS011;6741;48.964;9.406;2023-06-04T02:09:36;5.77;;;2.60;;
13343;SDS011;6741;48.964;9.406;2023-06-04T02:12:03;3.30;;;2.30;;
13343;SDS011;6741;48.964;9.406;2023-06-04T02:14:31;3.70;;;2.90;;
13343;SDS011;6741;48.964;9.406;2023-06-04T02:16:58;3.30;;;2.37;;
13343;SDS011;6741;48.964;9.406;2023-06-04T02:19:25;2.57;;;2.27;;
13343;SDS011;6741;48.964;9.406;2023-06-04T02:21:52;2.60;;;2.03;;
13343;SDS011;6741;48.964;9.406;2023-06-04T02:24:19;2.27;;;1.97;;
13343;SDS011;6741;48.964;9.406;2023-06-04T02:26:47;2.20;;;2.07;;
13343;SDS011;6741;48.964;9.406;2023-06-04T02:29:14;2.90;;;2.00;;
13343;SDS011;6741;48.964;9.406;2023-06-04T02:31:41;2.70;;;2.10;;
13343;SDS011;6741;48.964;9.406;2023-06-04T02:34:08;2.40;;;2.20;;
13343;SDS011;6741;48.964;9.406;2023-06-04T02:36:35;4.03;;;2.23;;
13343;SDS011;6741;48.964;9.406;2023-06-04T02:39:02;2.40;;;2.20;;
13343;SDS011;6741;48.964;9.406;2023-06-04T02:41:29;3.67;;;2.57;;
13343;SDS011;6741;48.964;9.406;2023-06-04T02:43:57;2.33;;;2.10;;
13343;SDS011;6741;48.964;9.406;2023-06-04T02:46:24;2.50;;;2.30;;
13343;SDS011;6741;48.964;9.406;2023-06-04T02:48:51;5.60;;;2.40;;
13343;SDS011;6741;48.964;9.406;2023-06-04T02:51:18;3.23;;;2.00;;
13343;SDS011;6741;48.964;9.406;2023-06-04T02:53:45;4.23;;;2.43;;
13343;SDS011;6741;48.964;9.406;2023-06-04T02:56:12;3.33;;;1.90;;
13343;SDS011;6741;48.964;9.406;2023-06-04T02:58:48;2.77;;;1.97;;
13343;SDS011;6741;48.964;9.406;2023-06-04T03:01:20;3.43;;;2.07;;
13343;SDS011;6741;48.964;9.406;2023-06-04T03:03:48;2.57;;;2.10;;
13343;SDS011;6741;48.964;9.406;2023-06-04T03:06:16;5.13;;;2.13;;
13343;SDS011;6741;48.964;9.406;2023-06-04T03:08:45;3.00;;;2.27;;
13343;SDS011;6741;48.964;9.406;2023-06-04T03:11:12;2.27;;;1.67;;
13343;SDS011;6741;48.964;9.406;2023-06-04T03:13:39;2.47;;;2.10;;
13343;SDS011;6741;48.964;9.406;2023-06-04T03:16:06;2.87;;;2.17;;
13343;SDS011;6741;48.964;9.406;2023-06-04T03:18:36;4.03;;;2.07;;
13343;SDS011;6741;48.964;9.406;2023-06-04T03:21:03;3.03;;;1.90;;
13343;SDS011;6741;48.964;9.406;2023-06-04T03:23:30;3.30;;;2.33;;
13343;SDS011;6741;48.964;9.406;2023-06-04T03:25:58;2.10;;;1.90;;
13343;SDS011;6741;48.964;9.406;2023-06-04T03:28:25;3.33;;;2.27;;
13343;SDS011;6741;48.964;9.406;2023-06-04T03:30:51;4.03;;;2.37;;
13343;SDS011;6741;48.964;9.406;2023-06-04T03:33:18;2.63;;;1.77;;
13343;SDS011;6741;48.964;9.406;2023-06-04T03:35:47;2.33;;;2.13;;
13343;SDS011;6741;48.964;9.406;2023-06-04T03:38:14;3.67;;;2.20;;
13343;SDS011;6741;48.964;9.406;2023-06-04T03:40:42;4.07;;;2.53;;
13343;SDS011;6741;48.964;9.406;2023-06-04T03:43:09;2.47;;;2.20;;
13343;SDS011;6741;48.964;9.406;2023-06-04T03:45:36;2.50;;;2.10;;
13343;SDS011;6741;48.964;9.406;2023-06-04T03:48:03;4.87;;;1.83;;
13343;SDS011;6741;48.964;9.406;2023-06-04T03:50:30;2.67;;;1.80;;
13343;SDS011;6741;48.964;9.406;2023-06-04T03:52:59;3.20;;;2.00;;
13343;SDS011;6741;48.964;9.406;2023-06-04T03:55:26;3.70;;;1.80;;
13343;SDS011;6741;48.964;9.406;2023-06-04T03:57:52;2.13;;;1.90;;
13343;SDS011;6741;48.964;9.406;2023-06-04T04:00:19;2.17;;;1.90;;
13343;SDS011;6741;48.964;9.406;2023-06-04T04:02:47;3.07;;;2.00;;
13343;SDS011;6741;48.964;9.406;2023-06-04T04:05:14;2.23;;;2.03;;
13343;SDS011;6741;48.964;9.406;2023-06-04T04:07:42;4.27;;;2.43;;
13343;SDS011;6741;48.964;9.406;2023-06-04T04:10:10;2.70;;;1.93;;
13343;SDS011;6741;48.964;9.406;2023-06-04T04:12:37;2.80;;;1.70;;
13343;SDS011;6741;48.964;9.406;2023-06-04T04:15:04;2.43;;;1.50;;
13343;SDS011;6741;48.964;9.406;2023-06-04T04:17:31;3.87;;;1.80;;
13343;SDS011;6741;48.964;9.406;2023-06-04T04:19:58;2.77;;;1.70;;
13343;SDS011;6741;48.964;9.406;2023-06-04T04:22:26;1.93;;;1.63;;
13343;SDS011;6741;48.964;9.406;2023-06-04T04:24:53;3.77;;;2.07;;
13343;SDS011;6741;48.964;9.406;2023-06-04T04:27:21;2.53;;;1.97;;
13343;SDS011;6741;48.964;9.406;2023-06-04T04:29:48;2.30;;;2.00;;
13343;SDS011;6741;48.964;9.406;2023-06-04T04:32:15;2.30;;;1.87;;
13343;SDS011;6741;48.964;9.406;2023-06-04T04:34:49;1.73;;;1.63;;
13343;SDS011;6741;48.964;9.406;2023-06-04T04:37:18;4.40;;;2.00;;
13343;SDS011;6741;48.964;9.406;2023-06-04T04:39:47;3.60;;;1.83;;
13343;SDS011;6741;48.964;9.406;2023-06-04T04:42:16;3.97;;;2.27;;
13343;SDS011;6741;48.964;9.406;2023-06-04T04:44:45;3.70;;;2.00;;
13343;SDS011;6741;48.964;9.406;2023-06-04T04:47:13;3.03;;;2.10;;
13343;SDS011;6741;48.964;9.406;2023-06-04T04:49:40;4.90;;;2.17;;
13343;SDS011;6741;48.964;9.406;2023-06-04T04:52:07;2.10;;;1.90;;
13343;SDS011;6741;48.964;9.406;2023-06-04T04:54:34;3.47;;;1.83;;
13343;SDS011;6741;48.964;9.406;2023-06-04T04:57:01;2.00;;;1.83;;
13343;SDS011;6741;48.964;9.406;2023-06-04T04:59:28;7.97;;;2.37;;
13343;SDS011;6741;48.964;9.406;2023-06-04T05:01:56;2.80;;;1.57;;
13343;SDS011;6741;48.964;9.406;2023-06-04T05:04:23;1.87;;;1.67;;
13343;SDS011;6741;48.964;9.406;2023-06-04T05:06:50;2.30;;;1.77;;
13343;SDS011;6741;48.964;9.406;2023-06-04T05:09:17;4.47;;;2.00;;
13343;SDS011;6741;48.964;9.406;2023-06-04T05:11:43;5.13;;;1.97;;
13343;SDS011;6741;48.964;9.406;2023-06-04T05:14:10;1.87;;;1.60;;
13343;SDS011;6741;48.964;9.406;2023-06-04T05:16:37;2.87;;;2.20;;
13343;SDS011;6741;48.964;9.406;2023-06-04T05:19:07;2.57;;;1.93;;
13343;SDS011;6741;48.964;9.406;2023-06-04T05:21:36;2.33;;;2.10;;
13343;SDS011;6741;48.964;9.406;2023-06-04T05:24:02;1.93;;;1.60;;
13343;SDS011;6741;48.964;9.406;2023-06-04T05:26:30;2.97;;;1.80;;
13343;SDS011;6741;48.964;9.406;2023-06-04T05:28:58;2.63;;;2.07;;
13343;SDS011;6741;48.964;9.406;2023-06-04T05:31:25;1.70;;;1.60;;
13343;SDS011;6741;48.964;9.406;2023-06-04T05:33:52;3.07;;;2.03;;
13343;SDS011;6741;48.964;9.406;2023-06-04T05:36:21;3.60;;;1.90;;
13343;SDS011;6741;48.964;9.406;2023-06-04T05:38:48;2.37;;;2.07;;
13343;SDS011;6741;48.964;9.406;2023-06-04T05:41:22;2.40;;;1.73;;
13343;SDS011;6741;48.964;9.406;2023-06-04T05:43:49;3.53;;;1.93;;
13343;SDS011;6741;48.964;9.406;2023-06-04T05:46:16;2.87;;;1.93;;
13343;SDS011;6741;48.964;9.406;2023-06-04T05:48:43;2.50;;;1.90;;
13343;SDS011;6741;48.964;9.406;2023-06-04T05:51:10;2.20;;;2.00;;
13343;SDS011;6741;48.964;9.406;2023-06-04T05:53:40;3.43;;;2.00;;
13343;SDS011;6741;48.964;9.406;2023-06-04T05:56:07;2.37;;;2.17;;
13343;SDS011;6741;48.964;9.406;2023-06-04T05:58:34;2.47;;;2.07;;
13343;SDS011;6741;48.964;9.406;2023-06-04T06:01:01;2.93;;;1.97;;
13343;SDS011;6741;48.964;9.406;2023-06-04T06:03:28;2.47;;;2.15;;
13343;SDS011;6741;48.964;9.406;2023-06-04T06:05:55;2.28;;;2.08;;
13343;SDS011;6741;48.964;9.406;2023-06-04T06:08:23;3.90;;;1.92;;
13343;SDS011;6741;48.964;9.406;2023-06-04T06:10:51;3.22;;;2.13;;
13343;SDS011;6741;48.964;9.406;2023-06-04T06:13:18;2.53;;;1.80;;
13343;SDS011;6741;48.964;9.406;2023-06-04T06:15:46;2.72;;;2.53;;
13343;SDS011;6741;48.964;9.406;2023-06-04T06:18:13;2.20;;;2.00;;
13343;SDS011;6741;48.964;9.406;2023-06-04T06:20:40;6.85;;;2.40;;
13343;SDS011;6741;48.964;9.406;2023-06-04T06:23:07;2.80;;;2.38;;
13343;SDS011;6741;48.964;9.406;2023-06-04T06:25:34;2.42;;;1.70;;
13343;SDS011;6741;48.964;9.406;2023-06-04T06:28:02;2.40;;;2.08;;
13343;SDS011;6741;48.964;9.406;2023-06-04T06:30:29;2.10;;;1.95;;
13343;SDS011;6741;48.964;9.406;2023-06-04T06:32:56;2.22;;;1.95;;
13343;SDS011;6741;48.964;9.406;2023-06-04T06:35:23;3.20;;;2.05;;
13343;SDS011;6741;48.964;9.406;2023-06-04T06:37:50;4.47;;;2.08;;
13343;SDS011;6741;48.964;9.406;2023-06-04T06:40:17;3.58;;;2.33;;
13343;SDS011;6741;48.964;9.406;2023-06-04T06:42:47;2.42;;;2.13;;
13343;SDS011;6741;48.964;9.406;2023-06-04T06:45:17;2.55;;;2.35;;
13343;SDS011;6741;48.964;9.406;2023-06-04T06:47:44;4.50;;;2.50;;
13343;SDS011;6741;48.964;9.406;2023-06-04T06:50:11;3.65;;;2.20;;
13343;SDS011;6741;48.964;9.406;2023-06-04T06:52:38;3.95;;;2.33;;
13343;SDS011;6741;48.964;9.406;2023-06-04T06:55:05;3.17;;;2.00;;
13343;SDS011;6741;48.964;9.406;2023-06-04T06:57:32;5.85;;;1.92;;
13343;SDS011;6741;48.964;9.406;2023-06-04T06:59:59;2.50;;;2.10;;
13343;SDS011;6741;48.964;9.406;2023-06-04T07:02:28;2.72;;;2.20;;
13343;SDS011;6741;48.964;9.406;2023-06-04T07:04:55;2.40;;;2.20;;
13343;SDS011;6741;48.964;9.406;2023-06-04T07:07:22;2.38;;;2.10;;
13343;SDS011;6741;48.964;9.406;2023-06-04T07:09:48;2.40;;;2.20;;
13343;SDS011;6741;48.964;9.406;2023-06-04T07:12:16;2.30;;;2.10;;
13343;SDS011;6741;48.964;9.406;2023-06-04T07:14:43;2.25;;;2.08;;
13343;SDS011;6741;48.964;9.406;2023-06-04T07:17:10;2.70;;;2.30;;
13343;SDS011;6741;48.964;9.406;2023-06-04T07:19:38;2.95;;;2.28;;
13343;SDS011;6741;48.964;9.406;2023-06-04T07:22:05;2.80;;;2.35;;
13343;SDS011;6741;48.964;9.406;2023-06-04T07:24:32;4.60;;;2.40;;
13343;SDS011;6741;48.964;9.406;2023-06-04T07:27:09;2.97;;;2.25;;
13343;SDS011;6741;48.964;9.406;2023-06-04T07:29:36;2.58;;;2.13;;
13343;SDS011;6741;48.964;9.406;2023-06-04T07:32:03;2.42;;;2.17;;
13343;SDS011;6741;48.964;9.406;2023-06-04T07:34:30;3.40;;;2.15;;
13343;SDS011;6741;48.964;9.406;2023-06-04T07:36:59;2.80;;;2.25;;
13343;SDS011;6741;48.964;9.406;2023-06-04T07:39:26;3.33;;;2.40;;
13343;SDS011;6741;48.964;9.406;2023-06-04T07:41:53;3.72;;;2.35;;
13343;SDS011;6741;48.964;9.406;2023-06-04T07:44:20;4.90;;;2.22;;
13343;SDS011;6741;48.964;9.406;2023-06-04T07:46:47;2.42;;;2.22;;
13343;SDS011;6741;48.964;9.406;2023-06-04T07:49:13;3.20;;;1.95;;
13343;SDS011;6741;48.964;9.406;2023-06-04T07:51:41;3.60;;;2.15;;
13343;SDS011;6741;48.964;9.406;2023-06-04T07:54:09;2.50;;;2.00;;
13343;SDS011;6741;48.964;9.406;2023-06-04T07:56:37;3.30;;;2.00;;
13343;SDS011;6741;48.964;9.406;2023-06-04T07:59:04;3.35;;;2.30;;
13343;SDS011;6741;48.964;9.406;2023-06-04T08:01:30;2.60;;;2.30;;
13343;SDS011;6741;48.964;9.406;2023-06-04T08:03:57;3.90;;;2.45;;
13343;SDS011;6741;48.964;9.406;2023-06-04T08:06:25;3.33;;;2.30;;
13343;SDS011;6741;48.964;9.406;2023-06-04T08:08:52;2.58;;;2.38;;
13343;SDS011;6741;48.964;9.406;2023-06-04T08:11:20;3.03;;;2.30;;
13343;SDS011;6741;48.964;9.406;2023-06-04T08:13:49;2.25;;;2.05;;
13343;SDS011;6741;48.964;9.406;2023-06-04T08:16:16;2.72;;;2.35;;
13343;SDS011;6741;48.964;9.406;2023-06-04T08:18:43;3.22;;;2.50;;
13343;SDS011;6741;48.964;9.406;2023-06-04T08:21:10;3.50;;;2.58;;
13343;SDS011;6741;48.964;9.406;2023-06-04T08:23:38;2.67;;;2.47;;
13343;SDS011;6741;48.964;9.406;2023-06-04T08:26:05;3.80;;;2.92;;
13343;SDS011;6741;48.964;9.406;2023-06-04T08:28:34;2.30;;;2.10;;
13343;SDS011;6741;48.964;9.406;2023-06-04T08:31:03;2.28;;;2.08;;
13343;SDS011;6741;48.964;9.406;2023-06-04T08:33:30;3.30;;;2.25;;
13343;SDS011;6741;48.964;9.406;2023-06-04T08:35:57;3.15;;;2.30;;
13343;SDS011;6741;48.964;9.406;2023-06-04T08:38:24;2.58;;;2.38;;
13343;SDS011;6741;48.964;9.406;2023-06-04T08:40:52;2.47;;;2.28;;
13343;SDS011;6741;48.964;9.406;2023-06-04T08:43:22;2.60;;;2.15;;
13343;SDS011;6741;48.964;9.406;2023-06-04T08:45:52;2.15;;;1.95;;
13343;SDS011;6741;48.964;9.406;2023-06-04T08:48:26;2.95;;;2.55;;
13343;SDS011;6741;48.964;9.406;2023-06-04T08:50:55;3.70;;;2.22;;
13343;SDS011;6741;48.964;9.406;2023-06-04T08:53:25;4.22;;;2.38;;
13343;SDS011;6741;48.964;9.406;2023-06-04T08:55:52;3.63;;;2.42;;
13343;SDS011;6741;48.964;9.406;2023-06-04T08:58:20;3.28;;;2.85;;
13343;SDS011;6741;48.964;9.406;2023-06-04T09:00:47;3.17;;;2.67;;
13343;SDS011;6741;48.964;9.406;2023-06-04T09:03:16;2.90;;;2.45;;
13343;SDS011;6741;48.964;9.406;2023-06-04T09:05:48;3.15;;;2.63;;
13343;SDS011;6741;48.964;9.406;2023-06-04T09:08:15;2.60;;;2.40;;
13343;SDS011;6741;48.964;9.406;2023-06-04T09:10:44;2.83;;;2.47;;
13343;SDS011;6741;48.964;9.406;2023-06-04T09:13:14;3.15;;;2.35;;
13343;SDS011;6741;48.964;9.406;2023-06-04T09:15:43;3.40;;;2.15;;
13343;SDS011;6741;48.964;9.406;2023-06-04T09:18:11;2.63;;;2.38;;
13343;SDS011;6741;48.964;9.406;2023-06-04T09:20:39;2.53;;;2.33;;
13343;SDS011;6741;48.964;9.406;2023-06-04T09:23:12;2.78;;;2.35;;
13343;SDS011;6741;48.964;9.406;2023-06-04T09:25:41;4.20;;;2.45;;
13343;SDS011;6741;48.964;9.406;2023-06-04T09:28:09;2.47;;;2.25;;
13343;SDS011;6741;48.964;9.406;2023-06-04T09:30:36;3.50;;;2.15;;
13343;SDS011;6741;48.964;9.406;2023-06-04T09:33:07;3.50;;;2.50;;
13343;SDS011;6741;48.964;9.406;2023-06-04T09:35:34;3.78;;;2.55;;
13343;SDS011;6741;48.964;9.406;2023-06-04T09:38:04;3.15;;;2.47;;
13343;SDS011;6741;48.964;9.406;2023-06-04T09:40:34;3.55;;;2.40;;
13343;SDS011;6741;48.964;9.406;2023-06-04T09:43:02;4.35;;;2.13;;
13343;SDS011;6741;48.964;9.406;2023-06-04T09:45:30;3.05;;;2.33;;
13343;SDS011;6741;48.964;9.406;2023-06-04T09:47:59;2.97;;;2.40;;
13343;SDS011;6741;48.964;9.406;2023-06-04T09:50:27;2.63;;;2.20;;
13343;SDS011;6741;48.964;9.406;2023-06-04T09:52:56;3.45;;;2.20;;
13343;SDS011;6741;48.964;9.406;2023-06-04T09:55:24;3.22;;;2.35;;
13343;SDS011;6741;48.964;9.406;2023-06-04T09:57:51;2.72;;;2.40;;
13343;SDS011;6741;48.964;9.406;2023-06-04T10:00:20;3.13;;;2.47;;
13343;SDS011;6741;48.964;9.406;2023-06-04T10:02:48;2.60;;;2.40;;
13343;SDS011;6741;48.964;9.406;2023-06-04T10:05:15;2.72;;;2.10;;
13343;SDS011;6741;48.964;9.406;2023-06-04T10:07:46;2.92;;;2.58;;
13343;SDS011;6741;48.964;9.406;2023-06-04T10:10:16;3.17;;;2.63;;
13343;SDS011;6741;48.964;9.406;2023-06-04T10:12:48;3.33;;;2.20;;
13343;SDS011;6741;48.964;9.406;2023-06-04T10:15:20;3.03;;;2.30;;
13343;SDS011;6741;48.964;9.406;2023-06-04T10:17:48;3.38;;;2.40;;
13343;SDS011;6741;48.964;9.406;2023-06-04T10:20:16;2.53;;;2.30;;
13343;SDS011;6741;48.964;9.406;2023-06-04T10:22:45;5.32;;;2.38;;
13343;SDS011;6741;48.964;9.406;2023-06-04T10:25:14;5.55;;;2.50;;
13343;SDS011;6741;48.964;9.406;2023-06-04T10:27:42;2.55;;;2.35;;
13343;SDS011;6741;48.964;9.406;2023-06-04T10:30:11;2.50;;;2.30;;
13343;SDS011;6741;48.964;9.406;2023-06-04T10:32:38;2.67;;;2.47;;
13343;SDS011;6741;48.964;9.406;2023-06-04T10:35:07;3.58;;;2.55;;
13343;SDS011;6741;48.964;9.406;2023-06-04T10:37:34;3.53;;;2.28;;
13343;SDS011;6741;48.964;9.406;2023-06-04T10:40:01;2.67;;;2.25;;
13343;SDS011;6741;48.964;9.406;2023-06-04T10:42:37;3.90;;;2.47;;
13343;SDS011;6741;48.964;9.406;2023-06-04T10:45:05;2.75;;;2.35;;
13343;SDS011;6741;48.964;9.406;2023-06-04T10:47:35;2.92;;;2.58;;
13343;SDS011;6741;48.964;9.406;2023-06-04T10:50:09;2.47;;;2.28;;
13343;SDS011;6741;48.964;9.406;2023-06-04T10:52:37;3.10;;;2.13;;
13343;SDS011;6741;48.964;9.406;2023-06-04T10:55:05;2.60;;;2.40;;
13343;SDS011;6741;48.964;9.406;2023-06-04T10:57:33;4.35;;;2.75;;
13343;SDS011;6741;48.964;9.406;2023-06-04T11:00:00;3.05;;;2.50;;
13343;SDS011;6741;48.964;9.406;2023-06-04T11:02:28;3.67;;;2.85;;
13343;SDS011;6741;48.964;9.406;2023-06-04T11:05:00;4.85;;;2.53;;
13343;SDS011;6741;48.964;9.406;2023-06-04T11:07:28;3.45;;;2.63;;
13343;SDS011;6741;48.964;9.406;2023-06-04T11:09:55;3.55;;;2.88;;
13343;SDS011;6741;48.964;9.406;2023-06-04T11:12:22;3.20;;;2.83;;
13343;SDS011;6741;48.964;9.406;2023-06-04T11:14:55;3.13;;;2.30;;
13343;SDS011;6741;48.964;9.406;2023-06-04T11:17:23;2.97;;;2.63;;
13343;SDS011;6741;48.964;9.406;2023-06-04T11:19:50;5.30;;;2.58;;
13343;SDS011;6741;48.964;9.406;2023-06-04T11:22:21;2.47;;;2.28;;
13343;SDS011;6741;48.964;9.406;2023-06-04T11:24:48;2.40;;;2.30;;
13343;SDS011;6741;48.964;9.406;2023-06-04T11:27:17;3.30;;;2.55;;
13343;SDS011;6741;48.964;9.406;2023-06-04T11:29:48;2.70;;;2.50;;
13343;SDS011;6741;48.964;9.406;2023-06-04T11:32:20;2.53;;;2.33;;
13343;SDS011;6741;48.964;9.406;2023-06-04T11:34:48;2.70;;;2.50;;
13343;SDS011;6741;48.964;9.406;2023-06-04T11:37:15;2.97;;;2.40;;
13343;SDS011;6741;48.964;9.406;2023-06-04T11:39:43;2.88;;;2.67;;
13343;SDS011;6741;48.964;9.406;2023-06-04T11:42:10;3.67;;;2.25;;
13343;SDS011;6741;48.964;9.406;2023-06-04T11:44:38;8.45;;;2.50;;
13343;SDS011;6741;48.964;9.406;2023-06-04T11:47:10;3.25;;;2.83;;
13343;SDS011;6741;48.964;9.406;2023-06-04T11:49:38;3.42;;;2.80;;
13343;SDS011;6741;48.964;9.406;2023-06-04T11:52:05;4.82;;;3.00;;
13343;SDS011;6741;48.964;9.406;2023-06-04T11:54:33;2.67;;;2.45;;
13343;SDS011;6741;48.964;9.406;2023-06-04T11:57:04;2.60;;;2.40;;
13343;SDS011;6741;48.964;9.406;2023-06-04T11:59:32;2.58;;;2.38;;
13343;SDS011;6741;48.964;9.406;2023-06-04T12:01:59;2.10;;;2.00;;
13343;SDS011;6741;48.964;9.406;2023-06-04T12:04:29;3.17;;;2.75;;
13343;SDS011;6741;48.964;9.406;2023-06-04T12:06:58;3.33;;;3.03;;
13343;SDS011;6741;48.964;9.406;2023-06-04T12:09:30;5.45;;;3.33;;
13343;SDS011;6741;48.964;9.406;2023-06-04T12:12:00;2.85;;;2.65;;
13343;SDS011;6741;48.964;9.406;2023-06-04T12:14:29;4.25;;;2.83;;
13343;SDS011;6741;48.964;9.406;2023-06-04T12:16:57;4.05;;;2.90;;
13343;SDS011;6741;48.964;9.406;2023-06-04T12:19:25;5.60;;;2.50;;
13343;SDS011;6741;48.964;9.406;2023-06-04T12:21:58;3.38;;;2.60;;
13343;SDS011;6741;48.964;9.406;2023-06-04T12:24:27;3.83;;;2.50;;
13343;SDS011;6741;48.964;9.406;2023-06-04T12:27:01;2.88;;;2.67;;
13343;SDS011;6741;48.964;9.406;2023-06-04T12:29:30;2.95;;;2.45;;
13343;SDS011;6741;48.964;9.406;2023-06-04T12:32:04;3.05;;;2.67;;
13343;SDS011;6741;48.964;9.406;2023-06-04T12:34:34;3.38;;;2.45;;
13343;SDS011;6741;48.964;9.406;2023-06-04T12:37:01;3.28;;;2.65;;
13343;SDS011;6741;48.964;9.406;2023-06-04T12:39:31;4.25;;;2.55;;
13343;SDS011;6741;48.964;9.406;2023-06-04T12:41:58;3.28;;;2.67;;
13343;SDS011;6741;48.964;9.406;2023-06-04T12:44:25;2.95;;;2.50;;
13343;SDS011;6741;48.964;9.406;2023-06-04T12:46:53;3.17;;;2.72;;
13343;SDS011;6741;48.964;9.406;2023-06-04T12:49:20;3.03;;;2.70;;
13343;SDS011;6741;48.964;9.406;2023-06-04T12:51:47;3.92;;;2.92;;
13343;SDS011;6741;48.964;9.406;2023-06-04T12:54:14;4.22;;;3.05;;
13343;SDS011;6741;48.964;9.406;2023-06-04T12:56:41;2.83;;;2.63;;
13343;SDS011;6741;48.964;9.406;2023-06-04T12:59:09;4.25;;;2.70;;
13343;SDS011;6741;48.964;9.406;2023-06-04T13:01:36;2.50;;;2.30;;
13343;SDS011;6741;48.964;9.406;2023-06-04T13:04:04;3.10;;;2.35;;
13343;SDS011;6741;48.964;9.406;2023-06-04T13:06:33;2.63;;;2.40;;
13343;SDS011;6741;48.964;9.406;2023-06-04T13:09:03;5.15;;;2.33;;
13343;SDS011;6741;48.964;9.406;2023-06-04T13:11:34;2.70;;;2.50;;
13343;SDS011;6741;48.964;9.406;2023-06-04T13:14:01;2.35;;;2.22;;
13343;SDS011;6741;48.964;9.406;2023-06-04T13:16:28;2.83;;;2.60;;
13343;SDS011;6741;48.964;9.406;2023-06-04T13:18:55;3.95;;;2.78;;
13343;SDS011;6741;48.964;9.406;2023-06-04T13:21:23;2.75;;;2.55;;
13343;SDS011;6741;48.964;9.406;2023-06-04T13:23:50;2.60;;;2.40;;
13343;SDS011;6741;48.964;9.406;2023-06-04T13:26:17;2.40;;;2.28;;
13343;SDS011;6741;48.964;9.406;2023-06-04T13:28:44;2.60;;;2.40;;
13343;SDS011;6741;48.964;9.406;2023-06-04T13:31:11;2.75;;;2.00;;
13343;SDS011;6741;48.964;9.406;2023-06-04T13:33:38;3.35;;;1.92;;
13343;SDS011;6741;48.964;9.406;2023-06-04T13:36:06;3.15;;;2.25;;
13343;SDS011;6741;48.964;9.406;2023-06-04T13:38:34;2.35;;;2.15;;
13343;SDS011;6741;48.964;9.406;2023-06-04T13:41:01;3.90;;;2.53;;
13343;SDS011;6741;48.964;9.406;2023-06-04T13:43:28;2.85;;;2.35;;
13343;SDS011;6741;48.964;9.406;2023-06-04T13:45:55;2.60;;;2.40;;
13343;SDS011;6741;48.964;9.406;2023-06-04T13:48:22;2.65;;;2.40;;
13343;SDS011;6741;48.964;9.406;2023-06-04T13:50:49;2.72;;;2.28;;
13343;SDS011;6741;48.964;9.406;2023-06-04T13:53:16;2.55;;;2.35;;
13343;SDS011;6741;48.964;9.406;2023-06-04T13:55:44;2.42;;;2.17;;
13343;SDS011;6741;48.964;9.406;2023-06-04T13:58:11;2.78;;;2.58;;
13343;SDS011;6741;48.964;9.406;2023-06-04T14:00:39;2.55;;;2.33;;
13343;SDS011;6741;48.964;9.406;2023-06-04T14:03:06;2.67;;;2.30;;
13343;SDS011;6741;48.964;9.406;2023-06-04T14:05:33;2.97;;;2.15;;
13343;SDS011;6741;48.964;9.406;2023-06-04T14:08:00;2.65;;;2.45;;
13343;SDS011;6741;48.964;9.406;2023-06-04T14:10:27;4.05;;;2.28;;
13343;SDS011;6741;48.964;9.406;2023-06-04T14:12:56;3.30;;;2.97;;
13343;SDS011;6741;48.964;9.406;2023-06-04T14:15:23;3.03;;;2.58;;
13343;SDS011;6741;48.964;9.406;2023-06-04T14:17:50;2.75;;;2.55;;
13343;SDS011;6741;48.964;9.406;2023-06-04T14:20:17;2.80;;;2.60;;
13343;SDS011;6741;48.964;9.406;2023-06-04T14:22:43;2.58;;;2.38;;
13343;SDS011;6741;48.964;9.406;2023-06-04T14:25:10;4.03;;;2.30;;
13343;SDS011;6741;48.964;9.406;2023-06-04T14:27:37;3.08;;;2.88;;
13343;SDS011;6741;48.964;9.406;2023-06-04T14:30:06;2.80;;;2.60;;
13343;SDS011;6741;48.964;9.406;2023-06-04T14:32:35;2.95;;;2.75;;
13343;SDS011;6741;48.964;9.406;2023-06-04T14:35:03;2.90;;;2.70;;
13343;SDS011;6741;48.964;9.406;2023-06-04T14:37:31;2.72;;;2.53;;
13343;SDS011;6741;48.964;9.406;2023-06-04T14:39:58;3.15;;;2.95;;
13343;SDS011;6741;48.964;9.406;2023-06-04T14:42:25;3.22;;;2.42;;
13343;SDS011;6741;48.964;9.406;2023-06-04T14:44:52;3.03;;;2.83;;
13343;SDS011;6741;48.964;9.406;2023-06-04T14:47:20;2.92;;;2.63;;
13343;SDS011;6741;48.964;9.406;2023-06-04T14:49:47;3.13;;;2.75;;
13343;SDS011;6741;48.964;9.406;2023-06-04T14:52:14;2.97;;;2.78;;
13343;SDS011;6741;48.964;9.406;2023-06-04T14:54:41;2.55;;;2.35;;
13343;SDS011;6741;48.964;9.406;2023-06-04T14:57:08;4.20;;;2.55;;
13343;SDS011;6741;48.964;9.406;2023-06-04T14:59:35;3.45;;;2.45;;
13343;SDS011;6741;48.964;9.406;2023-06-04T15:02:04;2.50;;;2.22;;
13343;SDS011;6741;48.964;9.406;2023-06-04T15:04:33;3.20;;;2.45;;